sensor_id;sensor_type;location;lat;lon;timestamp;temperature;humidity
17827;DHT22;9038;48.208;16.308;2023-05-29T00:01:41;17.40;78.40
17827;DHT22;9038;48.208;16.308;2023-05-29T00:03:43;17.40;77.90
17827;DHT22;9038;48.208;16.308;2023-05-29T00:05:45;17.40;78.70
17827;DHT22;9038;48.208;16.308;2023-05-29T00:07:47;17.40;78.70
17827;DHT22;9038;48.208;16.308;2023-05-29T00:09:49;17.30;77.30
17827;DHT22;9038;48.208;16.308;2023-05-29T00:11:51;17.30;76.30
17827;DHT22;9038;48.208;16.308;2023-05-29T00:13:53;17.40;77.80
17827;DHT22;9038;48.208;16.308;2023-05-29T00:15:56;17.40;76.10
17827;DHT22;9038;48.208;16.308;2023-05-29T00:17:59;17.40;77.20
17827;DHT22;9038;48.208;16.308;2023-05-29T00:20:02;17.40;77.40
17827;DHT22;9038;48.208;16.308;2023-05-29T00:22:09;17.40;78.10
17827;DHT22;9038;48.208;16.308;2023-05-29T00:24:11;17.40;80.30
17827;DHT22;9038;48.208;16.308;2023-05-29T00:26:13;17.40;79.80
17827;DHT22;9038;48.208;16.308;2023-05-29T00:28:17;17.40;81.10
17827;DHT22;9038;48.208;16.308;2023-05-29T00:30:18;17.40;80.40
17827;DHT22;9038;48.208;16.308;2023-05-29T00:32:21;17.30;81.50
17827;DHT22;9038;48.208;16.308;2023-05-29T00:34:30;17.30;81.40
17827;DHT22;9038;48.208;16.308;2023-05-29T00:36:32;17.20;82.10
17827;DHT22;9038;48.208;16.308;2023-05-29T00:40:36;17.00;82.40
17827;DHT22;9038;48.208;16.308;2023-05-29T00:42:38;16.90;84.50
17827;DHT22;9038;48.208;16.308;2023-05-29T00:44:39;16.80;84.60
17827;DHT22;9038;48.208;16.308;2023-05-29T00:46:41;16.80;85.70
17827;DHT22;9038;48.208;16.308;2023-05-29T00:48:44;16.70;86.80
17827;DHT22;9038;48.208;16.308;2023-05-29T00:50:46;16.60;87.20
17827;DHT22;9038;48.208;16.308;2023-05-29T00:52:48;16.50;87.40
17827;DHT22;9038;48.208;16.308;2023-05-29T00:54:49;16.50;88.90
17827;DHT22;9038;48.208;16.308;2023-05-29T00:56:51;16.50;89.60
17827;DHT22;9038;48.208;16.308;2023-05-29T00:58:53;16.40;89.80
17827;DHT22;9038;48.208;16.308;2023-05-29T01:00:55;16.40;89.90
17827;DHT22;9038;48.208;16.308;2023-05-29T01:02:57;16.30;89.90
17827;DHT22;9038;48.208;16.308;2023-05-29T01:05:00;16.30;90.30
17827;DHT22;9038;48.208;16.308;2023-05-29T01:07:02;16.20;90.10
17827;DHT22;9038;48.208;16.308;2023-05-29T01:09:04;16.20;90.00
17827;DHT22;9038;48.208;16.308;2023-05-29T01:11:08;16.10;90.10
17827;DHT22;9038;48.208;16.308;2023-05-29T01:13:15;16.10;90.10
17827;DHT22;9038;48.208;16.308;2023-05-29T01:15:24;16.10;91.00
17827;DHT22;9038;48.208;16.308;2023-05-29T01:17:32;16.10;90.80
17827;DHT22;9038;48.208;16.308;2023-05-29T01:19:44;16.10;90.90
17827;DHT22;9038;48.208;16.308;2023-05-29T01:21:52;16.10;91.20
17827;DHT22;9038;48.208;16.308;2023-05-29T01:24:02;16.10;91.50
17827;DHT22;9038;48.208;16.308;2023-05-29T01:26:07;16.10;91.60
17827;DHT22;9038;48.208;16.308;2023-05-29T01:28:13;16.10;91.60
17827;DHT22;9038;48.208;16.308;2023-05-29T01:30:16;16.00;91.60
17827;DHT22;9038;48.208;16.308;2023-05-29T01:32:18;16.00;91.80
17827;DHT22;9038;48.208;16.308;2023-05-29T01:34:20;16.00;92.90
17827;DHT22;9038;48.208;16.308;2023-05-29T01:36:22;16.00;92.40
17827;DHT22;9038;48.208;16.308;2023-05-29T01:38:23;16.00;92.00
17827;DHT22;9038;48.208;16.308;2023-05-29T01:40:25;16.00;91.70
17827;DHT22;9038;48.208;16.308;2023-05-29T01:42:27;15.90;91.60
17827;DHT22;9038;48.208;16.308;2023-05-29T01:44:30;15.90;91.50
17827;DHT22;9038;48.208;16.308;2023-05-29T01:46:32;15.90;91.70
17827;DHT22;9038;48.208;16.308;2023-05-29T01:48:33;15.80;92.00
17827;DHT22;9038;48.208;16.308;2023-05-29T01:50:35;15.80;92.00
17827;DHT22;9038;48.208;16.308;2023-05-29T01:52:38;15.70;91.80
17827;DHT22;9038;48.208;16.308;2023-05-29T01:54:41;15.60;92.00
17827;DHT22;9038;48.208;16.308;2023-05-29T01:56:43;15.60;92.20
17827;DHT22;9038;48.208;16.308;2023-05-29T01:58:45;15.50;92.40
17827;DHT22;9038;48.208;16.308;2023-05-29T02:00:49;15.40;92.70
17827;DHT22;9038;48.208;16.308;2023-05-29T02:02:50;15.30;93.00
17827;DHT22;9038;48.208;16.308;2023-05-29T02:04:52;15.30;93.20
17827;DHT22;9038;48.208;16.308;2023-05-29T02:06:54;15.30;93.50
17827;DHT22;9038;48.208;16.308;2023-05-29T02:08:55;15.20;93.60
17827;DHT22;9038;48.208;16.308;2023-05-29T02:10:57;15.20;93.80
17827;DHT22;9038;48.208;16.308;2023-05-29T02:12:59;15.20;94.00
17827;DHT22;9038;48.208;16.308;2023-05-29T02:15:00;15.20;94.20
17827;DHT22;9038;48.208;16.308;2023-05-29T02:17:04;15.20;94.30
17827;DHT22;9038;48.208;16.308;2023-05-29T02:19:05;15.20;94.30
17827;DHT22;9038;48.208;16.308;2023-05-29T02:21:08;15.20;94.40
17827;DHT22;9038;48.208;16.308;2023-05-29T02:23:09;15.10;94.60
17827;DHT22;9038;48.208;16.308;2023-05-29T02:25:11;15.10;94.80
17827;DHT22;9038;48.208;16.308;2023-05-29T02:27:13;15.10;95.00
17827;DHT22;9038;48.208;16.308;2023-05-29T02:29:15;15.10;95.10
17827;DHT22;9038;48.208;16.308;2023-05-29T02:31:16;15.10;95.40
17827;DHT22;9038;48.208;16.308;2023-05-29T02:33:19;15.10;95.60
17827;DHT22;9038;48.208;16.308;2023-05-29T02:35:21;15.00;96.10
17827;DHT22;9038;48.208;16.308;2023-05-29T02:37:23;15.00;96.20
17827;DHT22;9038;48.208;16.308;2023-05-29T02:39:26;15.00;96.20
17827;DHT22;9038;48.208;16.308;2023-05-29T02:41:27;14.90;96.40
17827;DHT22;9038;48.208;16.308;2023-05-29T02:43:29;14.90;96.50
17827;DHT22;9038;48.208;16.308;2023-05-29T02:45:31;14.90;96.60
17827;DHT22;9038;48.208;16.308;2023-05-29T02:47:32;14.90;96.60
17827;DHT22;9038;48.208;16.308;2023-05-29T02:49:36;14.90;96.70
17827;DHT22;9038;48.208;16.308;2023-05-29T02:51:37;14.90;96.70
17827;DHT22;9038;48.208;16.308;2023-05-29T02:53:39;14.80;96.60
17827;DHT22;9038;48.208;16.308;2023-05-29T02:55:41;14.80;96.80
17827;DHT22;9038;48.208;16.308;2023-05-29T02:57:43;14.80;97.20
17827;DHT22;9038;48.208;16.308;2023-05-29T02:59:45;14.80;97.30
17827;DHT22;9038;48.208;16.308;2023-05-29T03:01:47;14.70;97.40
17827;DHT22;9038;48.208;16.308;2023-05-29T03:03:49;14.70;97.50
17827;DHT22;9038;48.208;16.308;2023-05-29T03:05:52;14.70;97.60
17827;DHT22;9038;48.208;16.308;2023-05-29T03:07:53;14.70;97.70
17827;DHT22;9038;48.208;16.308;2023-05-29T03:09:55;14.70;97.80
17827;DHT22;9038;48.208;16.308;2023-05-29T03:11:57;14.60;98.00
17827;DHT22;9038;48.208;16.308;2023-05-29T03:14:01;14.60;98.10
17827;DHT22;9038;48.208;16.308;2023-05-29T03:16:03;14.60;98.20
17827;DHT22;9038;48.208;16.308;2023-05-29T03:18:05;14.60;98.10
17827;DHT22;9038;48.208;16.308;2023-05-29T03:20:07;14.60;98.20
17827;DHT22;9038;48.208;16.308;2023-05-29T03:22:10;14.60;98.10
17827;DHT22;9038;48.208;16.308;2023-05-29T03:24:12;14.70;98.30
17827;DHT22;9038;48.208;16.308;2023-05-29T03:26:14;14.70;98.40
17827;DHT22;9038;48.208;16.308;2023-05-29T03:28:16;14.60;98.50
17827;DHT22;9038;48.208;16.308;2023-05-29T03:30:18;14.60;98.70
17827;DHT22;9038;48.208;16.308;2023-05-29T03:32:20;14.60;98.80
17827;DHT22;9038;48.208;16.308;2023-05-29T03:34:22;14.60;98.80
17827;DHT22;9038;48.208;16.308;2023-05-29T03:36:24;14.60;98.90
17827;DHT22;9038;48.208;16.308;2023-05-29T03:38:27;14.60;99.20
17827;DHT22;9038;48.208;16.308;2023-05-29T03:40:28;14.60;99.20
17827;DHT22;9038;48.208;16.308;2023-05-29T03:42:30;14.60;99.40
17827;DHT22;9038;48.208;16.308;2023-05-29T03:44:32;14.60;99.60
17827;DHT22;9038;48.208;16.308;2023-05-29T03:46:34;14.60;99.80
17827;DHT22;9038;48.208;16.308;2023-05-29T03:48:35;14.60;99.80
17827;DHT22;9038;48.208;16.308;2023-05-29T03:50:37;14.60;99.80
17827;DHT22;9038;48.208;16.308;2023-05-29T03:52:39;14.60;99.80
17827;DHT22;9038;48.208;16.308;2023-05-29T03:54:42;14.60;99.80
17827;DHT22;9038;48.208;16.308;2023-05-29T03:56:45;14.70;99.90
17827;DHT22;9038;48.208;16.308;2023-05-29T03:58:46;14.70;99.90
17827;DHT22;9038;48.208;16.308;2023-05-29T04:00:48;14.70;99.90
17827;DHT22;9038;48.208;16.308;2023-05-29T04:02:50;14.70;99.90
17827;DHT22;9038;48.208;16.308;2023-05-29T04:04:52;14.80;99.90
17827;DHT22;9038;48.208;16.308;2023-05-29T04:06:55;14.80;99.90
17827;DHT22;9038;48.208;16.308;2023-05-29T04:08:57;14.90;99.90
17827;DHT22;9038;48.208;16.308;2023-05-29T04:11:00;14.90;99.90
17827;DHT22;9038;48.208;16.308;2023-05-29T04:13:03;14.80;99.90
17827;DHT22;9038;48.208;16.308;2023-05-29T04:15:06;14.90;99.90
17827;DHT22;9038;48.208;16.308;2023-05-29T04:17:09;14.90;99.90
17827;DHT22;9038;48.208;16.308;2023-05-29T04:19:10;14.90;99.90
17827;DHT22;9038;48.208;16.308;2023-05-29T04:21:12;15.00;99.90
17827;DHT22;9038;48.208;16.308;2023-05-29T04:23:14;15.00;99.90
17827;DHT22;9038;48.208;16.308;2023-05-29T04:25:15;15.10;99.90
17827;DHT22;9038;48.208;16.308;2023-05-29T04:27:19;15.10;99.90
17827;DHT22;9038;48.208;16.308;2023-05-29T04:29:21;15.10;99.90
17827;DHT22;9038;48.208;16.308;2023-05-29T04:31:23;15.20;99.90
17827;DHT22;9038;48.208;16.308;2023-05-29T04:33:25;15.30;99.80
17827;DHT22;9038;48.208;16.308;2023-05-29T04:35:28;15.40;99.70
17827;DHT22;9038;48.208;16.308;2023-05-29T04:37:30;15.40;99.60
17827;DHT22;9038;48.208;16.308;2023-05-29T04:39:37;15.60;99.40
17827;DHT22;9038;48.208;16.308;2023-05-29T04:41:39;15.70;99.10
17827;DHT22;9038;48.208;16.308;2023-05-29T04:43:42;15.80;98.90
17827;DHT22;9038;48.208;16.308;2023-05-29T04:45:44;16.00;98.60
17827;DHT22;9038;48.208;16.308;2023-05-29T04:47:45;16.10;98.30
17827;DHT22;9038;48.208;16.308;2023-05-29T04:49:47;16.20;97.90
17827;DHT22;9038;48.208;16.308;2023-05-29T04:51:50;16.30;97.90
17827;DHT22;9038;48.208;16.308;2023-05-29T04:53:53;16.40;97.80
17827;DHT22;9038;48.208;16.308;2023-05-29T04:55:56;16.50;97.40
17827;DHT22;9038;48.208;16.308;2023-05-29T04:57:57;16.60;97.10
17827;DHT22;9038;48.208;16.308;2023-05-29T05:00:00;16.70;96.90
17827;DHT22;9038;48.208;16.308;2023-05-29T05:02:04;16.90;96.60
17827;DHT22;9038;48.208;16.308;2023-05-29T05:04:06;17.00;96.20
17827;DHT22;9038;48.208;16.308;2023-05-29T05:06:08;17.10;96.30
17827;DHT22;9038;48.208;16.308;2023-05-29T05:08:09;17.20;95.80
17827;DHT22;9038;48.208;16.308;2023-05-29T05:10:12;17.30;95.30
17827;DHT22;9038;48.208;16.308;2023-05-29T05:12:13;17.50;94.90
17827;DHT22;9038;48.208;16.308;2023-05-29T05:14:15;17.50;94.80
17827;DHT22;9038;48.208;16.308;2023-05-29T05:16:18;17.70;93.90
17827;DHT22;9038;48.208;16.308;2023-05-29T05:18:20;17.80;93.70
17827;DHT22;9038;48.208;16.308;2023-05-29T05:20:22;17.80;93.20
17827;DHT22;9038;48.208;16.308;2023-05-29T05:22:23;18.00;93.10
17827;DHT22;9038;48.208;16.308;2023-05-29T05:24:25;18.10;92.80
17827;DHT22;9038;48.208;16.308;2023-05-29T05:26:27;18.20;92.40
17827;DHT22;9038;48.208;16.308;2023-05-29T05:28:28;18.30;92.10
17827;DHT22;9038;48.208;16.308;2023-05-29T05:30:30;18.40;92.20
17827;DHT22;9038;48.208;16.308;2023-05-29T05:32:34;18.60;91.20
17827;DHT22;9038;48.208;16.308;2023-05-29T05:34:36;19.00;90.70
17827;DHT22;9038;48.208;16.308;2023-05-29T05:36:37;19.20;90.10
17827;DHT22;9038;48.208;16.308;2023-05-29T05:38:39;19.20;88.80
17827;DHT22;9038;48.208;16.308;2023-05-29T05:40:41;19.20;88.30
17827;DHT22;9038;48.208;16.308;2023-05-29T05:42:45;19.20;89.20
17827;DHT22;9038;48.208;16.308;2023-05-29T05:44:46;19.20;88.80
17827;DHT22;9038;48.208;16.308;2023-05-29T05:46:48;19.10;89.30
17827;DHT22;9038;48.208;16.308;2023-05-29T05:48:51;19.10;89.10
17827;DHT22;9038;48.208;16.308;2023-05-29T05:50:53;19.20;89.50
17827;DHT22;9038;48.208;16.308;2023-05-29T05:52:55;19.20;89.00
17827;DHT22;9038;48.208;16.308;2023-05-29T05:54:56;19.20;88.30
17827;DHT22;9038;48.208;16.308;2023-05-29T05:56:58;19.30;88.70
17827;DHT22;9038;48.208;16.308;2023-05-29T05:59:00;19.40;88.80
17827;DHT22;9038;48.208;16.308;2023-05-29T06:01:02;19.40;88.70
17827;DHT22;9038;48.208;16.308;2023-05-29T06:03:04;19.40;89.00
17827;DHT22;9038;48.208;16.308;2023-05-29T06:05:07;19.40;89.20
17827;DHT22;9038;48.208;16.308;2023-05-29T06:07:09;19.30;89.60
17827;DHT22;9038;48.208;16.308;2023-05-29T06:09:11;19.40;90.20
17827;DHT22;9038;48.208;16.308;2023-05-29T06:11:13;19.50;90.30
17827;DHT22;9038;48.208;16.308;2023-05-29T06:13:15;19.70;90.10
17827;DHT22;9038;48.208;16.308;2023-05-29T06:15:17;19.80;89.90
17827;DHT22;9038;48.208;16.308;2023-05-29T06:17:19;19.90;89.60
17827;DHT22;9038;48.208;16.308;2023-05-29T06:19:21;20.00;89.10
17827;DHT22;9038;48.208;16.308;2023-05-29T06:21:24;20.10;87.60
17827;DHT22;9038;48.208;16.308;2023-05-29T06:23:26;20.10;86.50
17827;DHT22;9038;48.208;16.308;2023-05-29T06:25:28;20.10;86.70
17827;DHT22;9038;48.208;16.308;2023-05-29T06:27:33;20.10;86.50
17827;DHT22;9038;48.208;16.308;2023-05-29T06:29:35;20.20;86.60
17827;DHT22;9038;48.208;16.308;2023-05-29T06:31:36;20.30;86.40
17827;DHT22;9038;48.208;16.308;2023-05-29T06:33:38;20.40;85.50
17827;DHT22;9038;48.208;16.308;2023-05-29T06:35:40;20.40;86.00
17827;DHT22;9038;48.208;16.308;2023-05-29T06:37:44;20.50;86.50
17827;DHT22;9038;48.208;16.308;2023-05-29T06:39:46;20.70;84.60
17827;DHT22;9038;48.208;16.308;2023-05-29T06:41:47;20.80;81.00
17827;DHT22;9038;48.208;16.308;2023-05-29T06:43:49;20.90;78.80
17827;DHT22;9038;48.208;16.308;2023-05-29T06:45:52;21.10;78.90
17827;DHT22;9038;48.208;16.308;2023-05-29T06:47:53;21.20;77.70
17827;DHT22;9038;48.208;16.308;2023-05-29T06:49:56;21.30;77.30
17827;DHT22;9038;48.208;16.308;2023-05-29T06:51:57;21.40;75.50
17827;DHT22;9038;48.208;16.308;2023-05-29T06:54:00;21.50;74.00
17827;DHT22;9038;48.208;16.308;2023-05-29T06:56:02;21.60;74.90
17827;DHT22;9038;48.208;16.308;2023-05-29T06:58:11;21.70;75.10
17827;DHT22;9038;48.208;16.308;2023-05-29T07:00:19;21.90;72.90
17827;DHT22;9038;48.208;16.308;2023-05-29T07:02:21;21.90;71.00
17827;DHT22;9038;48.208;16.308;2023-05-29T07:04:23;22.00;71.30
17827;DHT22;9038;48.208;16.308;2023-05-29T07:06:24;22.00;71.20
17827;DHT22;9038;48.208;16.308;2023-05-29T07:08:27;22.10;70.90
17827;DHT22;9038;48.208;16.308;2023-05-29T07:10:30;22.10;69.40
17827;DHT22;9038;48.208;16.308;2023-05-29T07:12:31;22.20;69.20
17827;DHT22;9038;48.208;16.308;2023-05-29T07:14:33;22.30;73.40
17827;DHT22;9038;48.208;16.308;2023-05-29T07:16:35;22.30;73.90
17827;DHT22;9038;48.208;16.308;2023-05-29T07:18:37;22.40;72.70
17827;DHT22;9038;48.208;16.308;2023-05-29T07:20:38;22.50;71.10
17827;DHT22;9038;48.208;16.308;2023-05-29T07:22:40;22.50;68.90
17827;DHT22;9038;48.208;16.308;2023-05-29T07:24:42;22.60;70.00
17827;DHT22;9038;48.208;16.308;2023-05-29T07:26:45;22.80;68.00
17827;DHT22;9038;48.208;16.308;2023-05-29T07:28:46;22.90;66.40
17827;DHT22;9038;48.208;16.308;2023-05-29T07:30:48;23.10;67.20
17827;DHT22;9038;48.208;16.308;2023-05-29T07:32:50;23.20;67.30
17827;DHT22;9038;48.208;16.308;2023-05-29T07:34:51;23.40;66.10
17827;DHT22;9038;48.208;16.308;2023-05-29T07:36:57;23.60;64.00
17827;DHT22;9038;48.208;16.308;2023-05-29T07:39:00;23.90;63.30
17827;DHT22;9038;48.208;16.308;2023-05-29T07:41:02;24.30;62.90
17827;DHT22;9038;48.208;16.308;2023-05-29T07:43:05;24.70;61.50
17827;DHT22;9038;48.208;16.308;2023-05-29T07:45:07;25.20;60.50
17827;DHT22;9038;48.208;16.308;2023-05-29T07:47:08;25.50;58.10
17827;DHT22;9038;48.208;16.308;2023-05-29T07:49:10;25.80;58.20
17827;DHT22;9038;48.208;16.308;2023-05-29T07:51:12;26.20;58.00
17827;DHT22;9038;48.208;16.308;2023-05-29T07:53:14;26.50;56.10
17827;DHT22;9038;48.208;16.308;2023-05-29T07:55:16;26.70;55.30
17827;DHT22;9038;48.208;16.308;2023-05-29T07:57:17;26.90;55.00
17827;DHT22;9038;48.208;16.308;2023-05-29T07:59:20;27.10;54.30
17827;DHT22;9038;48.208;16.308;2023-05-29T08:01:23;27.20;53.70
17827;DHT22;9038;48.208;16.308;2023-05-29T08:03:24;27.40;52.50
17827;DHT22;9038;48.208;16.308;2023-05-29T08:05:27;27.50;52.80
17827;DHT22;9038;48.208;16.308;2023-05-29T08:07:29;27.70;52.70
17827;DHT22;9038;48.208;16.308;2023-05-29T08:09:30;27.80;51.60
17827;DHT22;9038;48.208;16.308;2023-05-29T08:11:32;27.90;51.10
17827;DHT22;9038;48.208;16.308;2023-05-29T08:13:34;28.20;51.10
17827;DHT22;9038;48.208;16.308;2023-05-29T08:15:37;28.30;50.90
17827;DHT22;9038;48.208;16.308;2023-05-29T08:17:39;28.40;50.70
17827;DHT22;9038;48.208;16.308;2023-05-29T08:19:40;28.50;50.90
17827;DHT22;9038;48.208;16.308;2023-05-29T08:21:42;28.80;50.60
17827;DHT22;9038;48.208;16.308;2023-05-29T08:23:44;29.00;50.10
17827;DHT22;9038;48.208;16.308;2023-05-29T08:25:45;29.30;48.50
17827;DHT22;9038;48.208;16.308;2023-05-29T08:27:48;29.40;47.00
17827;DHT22;9038;48.208;16.308;2023-05-29T08:29:49;29.70;46.30
17827;DHT22;9038;48.208;16.308;2023-05-29T08:31:53;29.80;45.20
17827;DHT22;9038;48.208;16.308;2023-05-29T08:33:54;29.90;45.00
17827;DHT22;9038;48.208;16.308;2023-05-29T08:35:56;30.20;45.10
17827;DHT22;9038;48.208;16.308;2023-05-29T08:37:58;30.50;45.20
17827;DHT22;9038;48.208;16.308;2023-05-29T08:40:00;30.80;44.00
17827;DHT22;9038;48.208;16.308;2023-05-29T08:42:09;31.10;42.90
17827;DHT22;9038;48.208;16.308;2023-05-29T08:44:15;31.40;42.80
17827;DHT22;9038;48.208;16.308;2023-05-29T08:46:20;31.90;42.40
17827;DHT22;9038;48.208;16.308;2023-05-29T08:48:23;32.40;41.90
17827;DHT22;9038;48.208;16.308;2023-05-29T08:50:26;32.90;41.20
17827;DHT22;9038;48.208;16.308;2023-05-29T08:52:28;33.30;39.70
17827;DHT22;9038;48.208;16.308;2023-05-29T08:56:33;34.10;37.40
17827;DHT22;9038;48.208;16.308;2023-05-29T08:58:35;34.60;36.70
17827;DHT22;9038;48.208;16.308;2023-05-29T09:00:37;34.80;36.80
17827;DHT22;9038;48.208;16.308;2023-05-29T09:02:41;34.90;35.70
17827;DHT22;9038;48.208;16.308;2023-05-29T09:04:45;34.90;35.30
17827;DHT22;9038;48.208;16.308;2023-05-29T09:06:49;34.80;35.60
17827;DHT22;9038;48.208;16.308;2023-05-29T09:08:52;34.50;35.60
17827;DHT22;9038;48.208;16.308;2023-05-29T09:10:54;34.40;36.60
17827;DHT22;9038;48.208;16.308;2023-05-29T09:12:57;34.40;36.60
17827;DHT22;9038;48.208;16.308;2023-05-29T09:15:00;34.60;35.60
17827;DHT22;9038;48.208;16.308;2023-05-29T09:17:02;34.80;35.10
17827;DHT22;9038;48.208;16.308;2023-05-29T09:19:04;35.00;35.10
17827;DHT22;9038;48.208;16.308;2023-05-29T09:21:08;35.00;33.80
17827;DHT22;9038;48.208;16.308;2023-05-29T09:23:10;35.20;33.60
17827;DHT22;9038;48.208;16.308;2023-05-29T09:25:12;35.20;33.20
17827;DHT22;9038;48.208;16.308;2023-05-29T09:27:14;35.20;33.50
17827;DHT22;9038;48.208;16.308;2023-05-29T09:29:16;35.40;33.60
17827;DHT22;9038;48.208;16.308;2023-05-29T09:31:18;35.70;33.20
17827;DHT22;9038;48.208;16.308;2023-05-29T09:33:20;36.00;32.50
17827;DHT22;9038;48.208;16.308;2023-05-29T09:35:22;36.30;32.30
17827;DHT22;9038;48.208;16.308;2023-05-29T09:37:25;36.50;32.20
17827;DHT22;9038;48.208;16.308;2023-05-29T09:39:27;36.80;32.30
17827;DHT22;9038;48.208;16.308;2023-05-29T09:41:29;36.80;31.70
17827;DHT22;9038;48.208;16.308;2023-05-29T09:43:31;36.90;31.50
17827;DHT22;9038;48.208;16.308;2023-05-29T09:45:37;37.20;31.00
17827;DHT22;9038;48.208;16.308;2023-05-29T09:47:39;37.60;30.90
17827;DHT22;9038;48.208;16.308;2023-05-29T09:49:42;38.00;30.00
17827;DHT22;9038;48.208;16.308;2023-05-29T09:51:45;38.50;30.10
17827;DHT22;9038;48.208;16.308;2023-05-29T09:55:52;39.60;28.70
17827;DHT22;9038;48.208;16.308;2023-05-29T09:57:54;40.40;29.50
17827;DHT22;9038;48.208;16.308;2023-05-29T09:59:56;41.00;28.60
17827;DHT22;9038;48.208;16.308;2023-05-29T10:02:00;41.40;28.40
17827;DHT22;9038;48.208;16.308;2023-05-29T10:04:03;41.50;28.20
17827;DHT22;9038;48.208;16.308;2023-05-29T10:06:04;41.60;28.60
17827;DHT22;9038;48.208;16.308;2023-05-29T10:08:11;41.90;27.50
17827;DHT22;9038;48.208;16.308;2023-05-29T10:10:14;42.40;27.60
17827;DHT22;9038;48.208;16.308;2023-05-29T10:12:17;42.60;27.40
17827;DHT22;9038;48.208;16.308;2023-05-29T10:14:21;42.60;27.40
17827;DHT22;9038;48.208;16.308;2023-05-29T10:16:24;42.90;27.40
17827;DHT22;9038;48.208;16.308;2023-05-29T10:18:27;43.20;26.60
17827;DHT22;9038;48.208;16.308;2023-05-29T10:20:33;43.50;26.00
17827;DHT22;9038;48.208;16.308;2023-05-29T10:22:36;43.70;25.90
17827;DHT22;9038;48.208;16.308;2023-05-29T10:24:40;44.00;25.40
17827;DHT22;9038;48.208;16.308;2023-05-29T10:26:42;44.20;25.40
17827;DHT22;9038;48.208;16.308;2023-05-29T10:28:48;44.50;25.20
17827;DHT22;9038;48.208;16.308;2023-05-29T10:30:53;44.70;25.60
17827;DHT22;9038;48.208;16.308;2023-05-29T10:32:58;45.00;25.40
17827;DHT22;9038;48.208;16.308;2023-05-29T10:35:04;45.10;24.80
17827;DHT22;9038;48.208;16.308;2023-05-29T10:37:09;45.40;24.50
17827;DHT22;9038;48.208;16.308;2023-05-29T10:39:13;45.10;24.10
17827;DHT22;9038;48.208;16.308;2023-05-29T10:41:30;45.30;24.40
17827;DHT22;9038;48.208;16.308;2023-05-29T10:43:34;44.80;22.80
17827;DHT22;9038;48.208;16.308;2023-05-29T10:45:50;43.80;22.90
17827;DHT22;9038;48.208;16.308;2023-05-29T10:47:52;43.30;24.50
17827;DHT22;9038;48.208;16.308;2023-05-29T10:49:54;43.40;24.00
17827;DHT22;9038;48.208;16.308;2023-05-29T10:52:00;43.90;23.90
17827;DHT22;9038;48.208;16.308;2023-05-29T10:54:05;44.20;23.30
17827;DHT22;9038;48.208;16.308;2023-05-29T10:56:14;44.70;23.40
17827;DHT22;9038;48.208;16.308;2023-05-29T10:58:17;44.70;22.20
17827;DHT22;9038;48.208;16.308;2023-05-29T11:00:19;44.90;22.70
17827;DHT22;9038;48.208;16.308;2023-05-29T11:02:25;45.10;22.80
17827;DHT22;9038;48.208;16.308;2023-05-29T11:04:27;45.50;22.40
17827;DHT22;9038;48.208;16.308;2023-05-29T11:06:30;45.90;22.60
17827;DHT22;9038;48.208;16.308;2023-05-29T11:08:41;45.80;21.70
17827;DHT22;9038;48.208;16.308;2023-05-29T11:10:55;45.40;22.20
17827;DHT22;9038;48.208;16.308;2023-05-29T11:12:57;45.30;22.40
17827;DHT22;9038;48.208;16.308;2023-05-29T11:15:01;45.40;22.40
17827;DHT22;9038;48.208;16.308;2023-05-29T11:17:04;45.60;22.50
17827;DHT22;9038;48.208;16.308;2023-05-29T11:19:08;45.60;21.90
17827;DHT22;9038;48.208;16.308;2023-05-29T11:21:29;45.70;21.80
17827;DHT22;9038;48.208;16.308;2023-05-29T11:23:32;46.00;21.90
17827;DHT22;9038;48.208;16.308;2023-05-29T11:25:34;46.00;21.80
17827;DHT22;9038;48.208;16.308;2023-05-29T11:27:37;46.30;21.80
17827;DHT22;9038;48.208;16.308;2023-05-29T11:29:39;45.60;21.70
17827;DHT22;9038;48.208;16.308;2023-05-29T11:31:40;44.60;21.50
17827;DHT22;9038;48.208;16.308;2023-05-29T11:33:45;44.40;22.40
17827;DHT22;9038;48.208;16.308;2023-05-29T11:35:50;44.20;21.80
17827;DHT22;9038;48.208;16.308;2023-05-29T11:37:56;44.20;22.80
17827;DHT22;9038;48.208;16.308;2023-05-29T11:39:58;44.40;22.40
17827;DHT22;9038;48.208;16.308;2023-05-29T11:42:00;45.00;22.50
17827;DHT22;9038;48.208;16.308;2023-05-29T11:44:02;45.40;21.30
17827;DHT22;9038;48.208;16.308;2023-05-29T11:46:18;45.70;22.00
17827;DHT22;9038;48.208;16.308;2023-05-29T11:48:20;45.70;21.80
17827;DHT22;9038;48.208;16.308;2023-05-29T11:50:24;45.90;21.80
17827;DHT22;9038;48.208;16.308;2023-05-29T11:52:27;45.80;21.80
17827;DHT22;9038;48.208;16.308;2023-05-29T11:54:29;45.60;22.00
17827;DHT22;9038;48.208;16.308;2023-05-29T11:56:31;45.10;21.50
17827;DHT22;9038;48.208;16.308;2023-05-29T11:58:32;44.80;21.70
17827;DHT22;9038;48.208;16.308;2023-05-29T12:00:34;45.00;22.40
17827;DHT22;9038;48.208;16.308;2023-05-29T12:02:37;45.10;22.00
17827;DHT22;9038;48.208;16.308;2023-05-29T12:04:38;45.00;22.20
17827;DHT22;9038;48.208;16.308;2023-05-29T12:06:40;45.00;22.20
17827;DHT22;9038;48.208;16.308;2023-05-29T12:08:44;45.00;21.80
17827;DHT22;9038;48.208;16.308;2023-05-29T12:10:46;44.40;22.20
17827;DHT22;9038;48.208;16.308;2023-05-29T12:12:48;44.40;22.00
17827;DHT22;9038;48.208;16.308;2023-05-29T12:14:50;44.70;22.30
17827;DHT22;9038;48.208;16.308;2023-05-29T12:16:52;45.40;22.90
17827;DHT22;9038;48.208;16.308;2023-05-29T12:18:54;45.70;21.80
17827;DHT22;9038;48.208;16.308;2023-05-29T12:20:56;45.70;21.50
17827;DHT22;9038;48.208;16.308;2023-05-29T12:22:59;45.90;21.40
17827;DHT22;9038;48.208;16.308;2023-05-29T12:25:06;46.00;21.50
17827;DHT22;9038;48.208;16.308;2023-05-29T12:27:09;46.00;20.70
17827;DHT22;9038;48.208;16.308;2023-05-29T12:29:10;45.90;21.00
17827;DHT22;9038;48.208;16.308;2023-05-29T12:31:12;46.00;20.90
17827;DHT22;9038;48.208;16.308;2023-05-29T12:33:24;46.10;20.80
17827;DHT22;9038;48.208;16.308;2023-05-29T12:35:28;46.10;21.20
17827;DHT22;9038;48.208;16.308;2023-05-29T12:37:30;46.20;20.40
17827;DHT22;9038;48.208;16.308;2023-05-29T12:39:32;45.80;21.10
17827;DHT22;9038;48.208;16.308;2023-05-29T12:41:35;45.30;20.20
17827;DHT22;9038;48.208;16.308;2023-05-29T12:43:38;44.00;20.50
17827;DHT22;9038;48.208;16.308;2023-05-29T12:45:41;42.90;21.30
17827;DHT22;9038;48.208;16.308;2023-05-29T12:47:46;42.80;21.10
17827;DHT22;9038;48.208;16.308;2023-05-29T12:49:51;42.80;21.20
17827;DHT22;9038;48.208;16.308;2023-05-29T12:51:52;42.60;21.40
17827;DHT22;9038;48.208;16.308;2023-05-29T12:53:54;42.30;21.20
17827;DHT22;9038;48.208;16.308;2023-05-29T12:55:57;42.40;21.10
17827;DHT22;9038;48.208;16.308;2023-05-29T12:58:00;42.60;21.10
17827;DHT22;9038;48.208;16.308;2023-05-29T13:00:02;42.80;21.30
17827;DHT22;9038;48.208;16.308;2023-05-29T13:02:05;43.10;21.30